Time;durP1;ratioP1;P1;durP2;ratioP2;P2;SDS_P1;SDS_P2;PMS_P1;PMS_P2;Temp;Humidity;BMP_temperature;BMP_pressure;BME280_temperature;BME280_humidity;BME280_pressure;Samples;Min_cycle;Max_cycle;Signal;HPM_P1;HPM_P2
2021/01/13 00:02:06;;;;;;;16.15;10.32;;;;;;;1.28;90.13;94109.09;5073996;28;20206;-80
2021/01/13 00:04:33;;;;;;;14.30;9.88;;;;;;;1.28;90.93;94109.09;5074168;28;20227;-80
2021/01/13 00:06:59;;;;;;;17.10;12.50;;;;;;;1.29;91.08;94109.00;5073895;28;20271;-80
2021/01/13 00:09:25;;;;;;;19.48;11.30;;;;;;;1.31;91.45;94111.47;5074128;28;20206;-79
2021/01/13 00:11:55;;;;;;;21.45;13.90;;;;;;;1.25;91.09;94107.53;5073827;28;20194;-79
2021/01/13 00:14:23;;;;;;;23.73;12.65;;;;;;;1.21;91.28;94106.88;5073866;28;20206;-80
2021/01/13 00:16:49;;;;;;;18.52;10.98;;;;;;;1.23;91.94;94114.53;5073421;28;20528;-79
2021/01/13 00:19:16;;;;;;;17.95;11.60;;;;;;;1.24;92.11;94117.03;5073940;28;20266;-80
2021/01/13 00:21:47;;;;;;;18.80;11.63;;;;;;;1.19;91.52;94118.25;5073389;28;20252;-79
2021/01/13 00:24:14;;;;;;;17.85;11.48;;;;;;;1.11;92.35;94116.09;5073487;28;20444;-80
2021/01/13 00:26:40;;;;;;;24.35;13.75;;;;;;;1.16;92.29;94119.25;5073470;28;20207;-80
2021/01/13 00:29:07;;;;;;;19.25;11.05;;;;;;;1.17;91.82;94120.91;5073444;28;20217;-80
2021/01/13 00:31:34;;;;;;;19.20;13.15;;;;;;;1.19;92.02;94120.81;5073227;28;20206;-79
2021/01/13 00:34:01;;;;;;;17.13;9.80;;;;;;;1.26;91.73;94123.84;5073497;28;20212;-80
2021/01/13 00:36:29;;;;;;;18.90;10.90;;;;;;;1.29;91.92;94115.91;5037711;28;20300;-79
2021/01/13 00:38:56;;;;;;;14.13;10.77;;;;;;;1.29;91.67;94113.34;5073356;28;20245;-80
2021/01/13 00:41:22;;;;;;;15.95;12.18;;;;;;;1.28;91.78;94111.69;5073281;28;20206;-80
2021/01/13 00:43:50;;;;;;;14.18;11.23;;;;;;;1.30;91.61;94113.25;5072912;28;20210;-79
2021/01/13 00:46:17;;;;;;;23.17;12.57;;;;;;;1.29;90.93;94113.34;5072936;28;20212;-80
2021/01/13 00:48:45;;;;;;;14.50;10.18;;;;;;;1.23;91.68;94110.22;5073074;28;20252;-79
2021/01/13 00:51:11;;;;;;;16.63;9.60;;;;;;;1.26;92.04;94114.34;5073084;28;20206;-80
2021/01/13 00:53:37;;;;;;;14.13;9.70;;;;;;;1.23;92.18;94123.13;5037646;28;20442;-80
2021/01/13 00:56:04;;;;;;;16.35;9.75;;;;;;;1.30;92.36;94115.00;5072706;28;20256;-79
2021/01/13 00:58:31;;;;;;;12.45;8.73;;;;;;;1.26;91.91;94111.78;5072583;28;20300;-79
2021/01/13 01:00:57;;;;;;;10.90;8.00;;;;;;;1.19;91.74;94106.16;5072545;28;20198;-79
2021/01/13 01:03:24;;;;;;;10.98;8.15;;;;;;;1.22;92.25;94111.13;5072930;28;20198;-81
2021/01/13 01:05:51;;;;;;;14.00;9.60;;;;;;;1.30;91.92;94104.66;5037550;28;20210;-79
2021/01/13 01:08:18;;;;;;;16.40;9.45;;;;;;;1.38;91.61;94107.59;5072997;28;20210;-80
2021/01/13 01:10:48;;;;;;;10.80;8.90;;;;;;;1.48;91.23;94103.53;5072592;28;20210;-79
2021/01/13 01:13:14;;;;;;;17.55;10.25;;;;;;;1.48;91.03;94103.53;5072929;28;20440;-80
2021/01/13 01:15:41;;;;;;;12.97;10.00;;;;;;;1.52;90.95;94105.00;5072914;28;20234;-80
2021/01/13 01:18:07;;;;;;;16.43;11.03;;;;;;;1.56;89.97;94106.47;5054252;28;20455;-80
2021/01/13 01:20:34;;;;;;;14.70;10.80;;;;;;;1.53;90.65;94101.47;5072075;28;20448;-79
2021/01/13 01:23:02;;;;;;;15.17;9.90;;;;;;;1.46;90.63;94101.03;5072625;28;20496;-79
2021/01/13 01:25:31;;;;;;;21.38;12.80;;;;;;;1.51;90.39;94096.41;5072631;28;20448;-80
2021/01/13 01:28:00;;;;;;;21.88;14.65;;;;;;;1.52;90.68;94105.00;5072880;28;20209;-80
2021/01/13 01:30:28;;;;;;;19.73;12.63;;;;;;;1.53;90.60;94091.97;5072797;28;20205;-80
2021/01/13 01:32:55;;;;;;;19.95;12.93;;;;;;;1.52;90.34;94092.91;5072652;28;20452;-80
2021/01/13 01:35:22;;;;;;;21.75;13.20;;;;;;;1.47;90.61;94089.78;5072713;28;20198;-80
2021/01/13 01:37:48;;;;;;;25.40;13.30;;;;;;;1.50;90.37;94091.34;5072353;28;20326;-80
2021/01/13 01:40:18;;;;;;;20.15;11.93;;;;;;;1.51;90.17;94086.06;5072815;28;20256;-80
2021/01/13 01:42:45;;;;;;;18.08;11.55;;;;;;;1.43;90.04;94084.88;5072617;28;20251;-80
2021/01/13 01:45:14;;;;;;;18.60;11.35;;;;;;;1.39;90.74;94068.72;5072302;28;20198;-81
2021/01/13 01:48:13;;;;;;;16.65;11.50;;;;;;;1.34;90.97;94064.78;5072254;28;20216;-81
2021/01/13 01:50:41;;;;;;;13.13;10.75;;;;;;;1.29;90.81;94062.47;4990720;28;20244;-80
2021/01/13 01:53:18;;;;;;;16.83;11.43;;;;;;;1.35;90.61;94071.59;4990714;28;20262;-80
2021/01/13 01:55:51;;;;;;;18.30;11.23;;;;;;;1.33;90.62;94066.53;4975126;28;20495;-80
2021/01/13 01:58:26;;;;;;;16.45;9.98;;;;;;;1.30;90.29;94063.31;4991013;28;20204;-80
2021/01/13 02:00:55;;;;;;;11.00;7.75;;;;;;;1.30;90.43;94064.13;4942358;28;20204;-80
2021/01/13 02:03:24;;;;;;;21.08;11.52;;;;;;;1.32;90.75;94062.28;4990911;28;20251;-80
2021/01/13 02:05:57;;;;;;;15.50;9.70;;;;;;;1.38;90.37;94055.91;4990797;28;20216;-80
2021/01/13 02:08:24;;;;;;;10.38;8.95;;;;;;;1.37;89.98;94062.00;4990787;28;20217;-80
2021/01/13 02:10:52;;;;;;;13.90;9.60;;;;;;;1.39;89.96;94052.38;4990851;28;20207;-79
2021/01/13 02:13:20;;;;;;;13.23;9.30;;;;;;;1.47;89.98;94060.50;4990785;28;20718;-79
2021/01/13 02:15:48;;;;;;;18.30;9.67;;;;;;;1.62;90.00;94054.34;4990646;28;20518;-80
2021/01/13 02:18:18;;;;;;;17.27;9.97;;;;;;;1.71;89.14;94058.94;4990465;28;20802;-80
2021/01/13 02:20:46;;;;;;;15.60;11.18;;;;;;;1.84;89.07;94066.75;4990580;28;20451;-80
2021/01/13 02:23:29;;;;;;;16.40;10.93;;;;;;;1.90;88.50;94061.19;4990444;28;20272;-80
2021/01/13 02:26:28;;;;;;;21.03;12.40;;;;;;;1.97;87.50;94062.44;4990702;28;20534;-79
2021/01/13 02:29:00;;;;;;;19.00;11.20;;;;;;;2.01;87.57;94065.66;5072035;28;20453;-80
2021/01/13 02:31:48;;;;;;;16.30;11.20;;;;;;;1.93;87.08;94073.09;5071956;28;20453;-80
2021/01/13 02:34:30;;;;;;;23.97;13.17;;;;;;;1.95;87.27;94066.06;5075639;28;20440;-80
2021/01/13 02:37:32;;;;;;;16.05;10.35;;;;;;;1.92;87.16;94072.25;5075671;28;20484;-80
2021/01/13 02:40:02;;;;;;;16.75;10.52;;;;;;;1.95;87.90;94066.06;5075481;28;20647;-80
2021/01/13 02:42:34;;;;;;;19.83;10.73;;;;;;;1.90;87.36;94053.41;5076315;28;20560;-79
2021/01/13 02:45:08;;;;;;;19.30;13.00;;;;;;;1.84;87.54;94057.25;5075487;28;20446;-81
2021/01/13 02:48:00;;;;;;;26.33;16.90;;;;;;;1.80;87.92;94068.72;5075582;28;20460;-79
2021/01/13 02:50:29;;;;;;;20.27;14.00;;;;;;;1.89;88.35;94050.94;5075334;28;20213;-79
2021/01/13 02:53:07;;;;;;;18.33;11.30;;;;;;;1.84;87.88;94056.41;5075669;28;20451;-79
2021/01/13 02:55:37;;;;;;;15.15;10.57;;;;;;;1.81;88.18;94054.84;5075183;28;20221;-80
2021/01/13 02:58:09;;;;;;;19.43;10.63;;;;;;;1.88;88.17;94059.63;5075193;28;20544;-82
2021/01/13 03:00:37;;;;;;;20.63;12.52;;;;;;;1.83;87.63;94057.34;5074500;28;20444;-80
2021/01/13 03:03:08;;;;;;;19.93;12.17;;;;;;;1.93;87.52;94057.56;5075473;28;20201;-80
2021/01/13 03:05:34;;;;;;;15.70;11.00;;;;;;;1.84;86.55;94062.41;5023996;28;20796;-79
2021/01/13 03:08:01;;;;;;;16.73;11.30;;;;;;;1.77;86.26;94053.41;5039954;28;20501;-80
2021/01/13 03:10:28;;;;;;;14.40;9.53;;;;;;;1.81;87.37;94051.44;5074767;28;20448;-80
2021/01/13 03:13:00;;;;;;;17.87;11.30;;;;;;;1.86;86.52;94052.78;5074856;28;20929;-79
2021/01/13 03:15:28;;;;;;;18.40;11.23;;;;;;;1.95;87.14;94060.88;5074786;28;20452;-80
2021/01/13 03:18:06;;;;;;;16.97;11.37;;;;;;;2.11;86.69;94048.63;5074843;28;20458;-79
2021/01/13 03:20:39;;;;;;;20.17;11.57;;;;;;;2.25;86.66;94051.13;5074416;28;20852;-79
2021/01/13 03:23:16;;;;;;;15.67;11.67;;;;;;;2.30;85.97;94053.38;5074713;28;20476;-79
2021/01/13 03:25:52;;;;;;;20.57;12.30;;;;;;;2.31;84.95;94055.03;5074953;28;20443;-80
2021/01/13 03:28:22;;;;;;;24.00;13.97;;;;;;;2.37;84.94;94047.72;5074617;28;20444;-80
2021/01/13 03:30:50;;;;;;;19.83;12.13;;;;;;;2.39;85.37;94045.88;5039078;28;20493;-79
2021/01/13 03:34:05;;;;;;;26.47;13.90;;;;;;;2.42;84.61;94050.84;5074778;28;20522;-80
2021/01/13 03:36:47;;;;;;;18.13;12.03;;;;;;;2.44;84.64;94058.50;5074298;28;20480;-80
2021/01/13 03:39:19;;;;;;;20.90;12.93;;;;;;;2.50;83.81;94063.25;5074382;28;20452;-79
2021/01/13 03:42:04;;;;;;;22.60;13.17;;;;;;;2.60;83.88;94063.47;5074729;28;20444;-79
2021/01/13 03:44:32;;;;;;;20.47;11.10;;;;;;;2.63;84.38;94060.69;5074164;28;20448;-80
2021/01/13 03:47:34;;;;;;;22.30;13.43;;;;;;;2.74;83.56;94061.63;5074219;28;20569;-79
2021/01/13 03:50:12;;;;;;;21.40;13.10;;;;;;;2.82;83.83;94068.84;5074360;28;20436;-79
2021/01/13 03:52:42;;;;;;;16.47;11.70;;;;;;;2.87;83.76;94064.19;5038795;28;20432;-80
2021/01/13 03:55:08;;;;;;;22.50;13.97;;;;;;;2.86;82.78;94059.94;5074130;28;20452;-80
2021/01/13 03:58:04;;;;;;;24.33;14.17;;;;;;;2.84;82.64;94063.56;5073968;28;20480;-80
2021/01/13 04:00:40;;;;;;;22.60;13.20;;;;;;;2.88;83.16;94057.25;5073893;28;20447;-80
2021/01/13 04:03:13;;;;;;;25.23;15.20;;;;;;;2.93;83.03;94058.63;5074272;28;20444;-79
2021/01/13 04:06:02;;;;;;;25.77;14.83;;;;;;;2.94;82.87;94068.03;5074096;28;20455;-79
2021/01/13 04:08:34;;;;;;;21.13;12.10;;;;;;;2.82;81.91;94074.03;5073872;28;20483;-79
2021/01/13 04:11:01;;;;;;;25.70;14.13;;;;;;;2.66;82.69;94068.25;5073839;28;20452;-79
2021/01/13 04:13:38;;;;;;;19.13;12.43;;;;;;;2.63;83.27;94084.00;5038818;28;20920;-79
2021/01/13 04:16:05;;;;;;;21.57;13.37;;;;;;;2.47;83.79;94077.25;5073586;28;20488;-80
2021/01/13 04:18:32;;;;;;;18.93;12.37;;;;;;;2.45;84.33;94086.03;5073709;28;20444;-79
2021/01/13 04:21:00;;;;;;;24.60;15.47;;;;;;;2.45;84.91;94080.88;5073583;28;20448;-79
2021/01/13 04:23:27;;;;;;;23.03;15.90;;;;;;;2.33;84.91;94077.34;5038178;28;20921;-79
2021/01/13 04:25:54;;;;;;;30.30;16.67;;;;;;;2.32;85.37;94078.28;5073556;28;20444;-79
2021/01/13 04:28:20;;;;;;;29.40;19.00;;;;;;;2.31;85.98;94076.59;5073490;28;20928;-79
2021/01/13 04:30:47;;;;;;;29.47;16.47;;;;;;;2.31;85.40;94076.59;5073680;28;20920;-79
2021/01/13 04:33:14;;;;;;;27.73;16.07;;;;;;;2.34;84.89;94078.16;5073473;28;20935;-79
2021/01/13 04:35:41;;;;;;;29.27;16.50;;;;;;;2.41;85.32;94084.59;5054618;28;20425;-79
2021/01/13 04:38:11;;;;;;;34.60;18.57;;;;;;;2.49;85.28;94080.56;5073287;28;20453;-79
2021/01/13 04:40:39;;;;;;;32.00;19.93;;;;;;;2.47;85.10;94085.00;5073376;28;20502;-79
2021/01/13 04:43:07;;;;;;;27.90;18.23;;;;;;;2.49;85.44;94080.56;5073332;28;20494;-79
2021/01/13 04:45:40;;;;;;;26.90;17.17;;;;;;;2.56;85.33;94087.91;5073268;28;20515;-79
2021/01/13 04:48:08;;;;;;;29.97;16.80;;;;;;;2.63;85.56;94081.41;5073507;28;20449;-80
2021/01/13 04:50:37;;;;;;;28.73;17.50;;;;;;;2.67;85.52;94073.34;5073087;28;20448;-79
2021/01/13 04:53:10;;;;;;;31.73;19.13;;;;;;;2.79;85.41;94074.25;5037611;28;20443;-79
2021/01/13 04:55:45;;;;;;;29.97;18.47;;;;;;;2.85;85.43;94075.59;5072173;28;20443;-79
2021/01/13 04:58:43;;;;;;;34.27;18.70;;;;;;;2.86;85.25;94083.25;5072992;28;20450;-79
2021/01/13 05:01:45;;;;;;;36.00;19.73;;;;;;;2.29;86.46;94081.03;5073235;28;20491;-78
2021/01/13 05:04:44;;;;;;;35.87;21.60;;;;;;;2.46;86.53;94080.75;4991488;28;20451;-79
2021/01/13 05:07:13;;;;;;;32.37;20.20;;;;;;;2.59;87.67;94087.72;4991598;28;20440;-79
2021/01/13 05:09:50;;;;;;;32.13;18.07;;;;;;;2.65;87.61;94088.16;4991265;28;20547;-78
2021/01/13 05:12:17;;;;;;;30.97;19.93;;;;;;;2.75;87.42;94088.34;4991455;28;20518;-79
2021/01/13 05:14:45;;;;;;;40.90;20.77;;;;;;;2.82;86.93;94081.00;4975035;28;20489;-79
2021/01/13 05:17:31;;;;;;;30.37;21.07;;;;;;;2.90;86.84;94108.06;4991254;28;20499;-79
2021/01/13 05:20:24;;;;;;;42.13;21.10;;;;;;;2.90;85.81;94095.09;4991124;28;20487;-79
2021/01/13 05:22:52;;;;;;;37.77;20.77;;;;;;;2.90;85.12;94100.28;4990981;28;20483;-79
2021/01/13 05:25:54;;;;;;;36.97;22.03;;;;;;;2.94;85.99;94093.97;4991087;28;20436;-79
2021/01/13 05:28:23;;;;;;;27.93;19.03;;;;;;;2.98;85.74;94104.94;4952205;29;20507;-79
2021/01/13 05:30:51;;;;;;;32.70;19.97;;;;;;;2.99;86.04;94102.25;4952612;29;20883;-79
2021/01/13 05:33:20;;;;;;;34.50;21.13;;;;;;;3.00;85.64;94093.53;4952474;29;20449;-79
2021/01/13 05:35:52;;;;;;;27.50;18.53;;;;;;;3.01;85.10;94095.19;4952470;29;20533;-79
2021/01/13 05:38:24;;;;;;;34.37;22.90;;;;;;;2.95;84.85;94099.97;4952209;29;20454;-78
2021/01/13 05:40:52;;;;;;;39.00;24.03;;;;;;;2.85;85.71;94104.91;4991442;28;20442;-80
2021/01/13 05:43:21;;;;;;;40.60;21.63;;;;;;;2.83;85.73;94103.38;5030466;28;20848;-80
2021/01/13 05:45:50;;;;;;;34.73;20.30;;;;;;;2.83;86.12;94106.78;5030407;28;20470;-80
2021/01/13 05:48:22;;;;;;;33.80;21.63;;;;;;;2.88;85.54;94107.31;5030197;28;20469;-79
2021/01/13 05:50:52;;;;;;;37.13;23.00;;;;;;;2.89;85.37;94105.53;4981397;28;20442;-79
2021/01/13 05:53:19;;;;;;;37.80;22.03;;;;;;;2.93;85.28;94110.44;4980951;28;20479;-80
2021/01/13 05:55:50;;;;;;;30.50;19.90;;;;;;;2.89;85.48;94114.16;5030287;28;20446;-80
2021/01/13 05:58:25;;;;;;;30.33;19.07;;;;;;;2.83;86.32;94117.16;5030093;28;20450;-80
2021/01/13 06:00:55;;;;;;;41.23;19.73;;;;;;;2.85;85.22;94122.22;5030241;28;20844;-80
2021/01/13 06:03:24;;;;;;;27.57;18.03;;;;;;;2.86;85.76;94127.31;4997201;28;20442;-80
2021/01/13 06:05:56;;;;;;;31.30;20.97;;;;;;;2.90;85.65;94128.78;5063495;28;20440;-80
2021/01/13 06:08:26;;;;;;;33.67;20.07;;;;;;;2.96;86.20;94130.13;5076412;28;20440;-79
2021/01/13 06:10:56;;;;;;;32.67;19.33;;;;;;;2.97;85.56;94129.19;5076062;28;20444;-80
2021/01/13 06:13:28;;;;;;;31.47;20.83;;;;;;;3.03;86.15;94126.19;5075946;28;20456;-80
2021/01/13 06:16:00;;;;;;;47.07;23.10;;;;;;;3.08;86.04;94124.94;5040500;28;20978;-80
2021/01/13 06:18:27;;;;;;;36.90;21.97;;;;;;;3.16;85.80;94133.94;5076242;28;20444;-79
2021/01/13 06:20:56;;;;;;;35.93;23.33;;;;;;;3.20;86.17;94133.66;5075963;28;20462;-79
2021/01/13 06:23:23;;;;;;;47.37;25.40;;;;;;;3.24;85.83;94131.69;5040680;28;20484;-80
2021/01/13 06:25:54;;;;;;;41.63;22.90;;;;;;;3.26;85.33;94143.59;5075927;28;20514;-80
2021/01/13 06:28:26;;;;;;;37.40;23.53;;;;;;;3.31;85.43;94140.69;5041018;28;20478;-80
2021/01/13 06:31:03;;;;;;;43.73;25.23;;;;;;;3.32;85.85;94135.41;5076305;28;20447;-79
2021/01/13 06:33:35;;;;;;;40.67;22.07;;;;;;;3.24;85.57;94137.69;5075654;28;20450;-80
2021/01/13 06:36:37;;;;;;;38.50;19.97;;;;;;;3.22;84.47;94143.91;5075599;28;20533;-80
2021/01/13 06:39:06;;;;;;;36.40;19.10;;;;;;;3.20;84.00;94141.44;5013453;28;20465;-80
2021/01/13 06:41:44;;;;;;;38.03;20.60;;;;;;;3.21;83.77;94144.84;4964867;28;20956;-81
2021/01/13 06:44:11;;;;;;;41.67;23.33;;;;;;;3.11;83.74;94148.03;5013660;28;20435;-80
2021/01/13 06:46:38;;;;;;;46.73;25.00;;;;;;;3.10;84.29;94146.38;5013391;28;20443;-80
2021/01/13 06:49:15;;;;;;;34.87;19.50;;;;;;;2.97;83.51;94155.94;4980985;28;20501;-83
2021/01/13 06:51:43;;;;;;;45.03;21.47;;;;;;;2.82;84.27;94156.13;5013387;28;20787;-80
2021/01/13 06:54:12;;;;;;;25.43;13.83;;;;;;;2.49;84.31;94155.66;5013518;28;20493;-80
2021/01/13 06:56:47;;;;;;;28.20;17.33;;;;;;;2.43;86.23;94150.03;5013250;28;20970;-80
2021/01/13 06:59:14;;;;;;;25.10;14.63;;;;;;;2.47;87.76;94148.91;5013176;28;20888;-82
2021/01/13 07:01:50;;;;;;;33.87;19.20;;;;;;;2.45;89.43;94154.19;5013165;28;21054;-81
2021/01/13 07:04:16;;;;;;;39.67;20.90;;;;;;;2.63;93.06;94151.34;5011649;28;20439;-85
2021/01/13 07:07:00;;;;;;;42.20;22.10;;;;;;;2.85;94.97;94151.56;4964330;28;20665;-82
2021/01/13 07:09:37;;;;;;;49.87;21.37;;;;;;;2.93;89.21;94169.19;5012897;28;20466;-81
2021/01/13 07:12:09;;;;;;;30.10;17.43;;;;;;;3.03;87.65;94165.88;5012879;28;20447;-82
2021/01/13 07:14:40;;;;;;;25.83;16.90;;;;;;;3.09;87.62;94165.47;5012104;28;20431;-81
2021/01/13 07:17:11;;;;;;;32.30;17.47;;;;;;;3.17;85.38;94171.88;5073067;28;20225;-79
2021/01/13 07:19:38;;;;;;;32.87;18.80;;;;;;;3.21;84.61;94173.38;5063368;28;20471;-81
2021/01/13 07:22:05;;;;;;;24.77;17.40;;;;;;;3.29;84.72;94173.66;5074994;28;20491;-81
2021/01/13 07:24:32;;;;;;;31.00;20.27;;;;;;;3.39;84.82;94175.50;5073433;28;20446;-80
2021/01/13 07:26:59;;;;;;;28.87;16.43;;;;;;;3.43;82.88;94173.53;5075147;28;20544;-81
2021/01/13 07:29:27;;;;;;;29.70;17.00;;;;;;;3.54;82.24;94186.63;5074538;28;20527;-80
2021/01/13 07:31:58;;;;;;;19.83;14.00;;;;;;;3.63;82.27;94173.00;5074874;28;20452;-81
2021/01/13 07:34:34;;;;;;;19.93;13.73;;;;;;;3.54;80.76;94171.06;5074670;28;20428;-80
2021/01/13 07:37:03;;;;;;;32.90;16.03;;;;;;;3.46;80.60;94183.69;5074339;28;20541;-79
2021/01/13 07:40:09;;;;;;;20.17;11.97;;;;;;;3.32;81.38;94173.44;5072332;28;20498;-80
2021/01/13 07:42:37;;;;;;;23.50;14.20;;;;;;;3.31;81.13;94176.97;5074498;28;20440;-80
2021/01/13 07:45:06;;;;;;;27.97;13.93;;;;;;;3.31;81.63;94176.97;5067100;28;20441;-80
2021/01/13 07:48:19;;;;;;;32.63;16.03;;;;;;;3.34;81.39;94175.00;5057715;28;20569;-80
2021/01/13 07:50:50;;;;;;;38.53;19.87;;;;;;;3.35;82.10;94176.66;5054472;28;20532;-79
2021/01/13 07:53:27;;;;;;;22.50;15.97;;;;;;;3.44;82.41;94170.00;5060476;28;20538;-79
2021/01/13 07:55:59;;;;;;;27.50;15.50;;;;;;;3.50;81.78;94172.22;5057238;28;20449;-80
2021/01/13 07:58:30;;;;;;;25.97;14.67;;;;;;;3.49;80.93;94177.50;5053736;28;20452;-80
2021/01/13 08:01:22;;;;;;;20.17;13.07;;;;;;;3.43;82.43;94168.34;5051297;28;20556;-80
2021/01/13 08:04:34;;;;;;;17.30;10.87;;;;;;;3.43;81.73;94179.56;5063591;28;20445;-79
2021/01/13 08:07:03;;;;;;;19.17;11.50;;;;;;;3.38;81.76;94173.84;5073510;28;20797;-79
2021/01/13 08:09:35;;;;;;;19.80;11.13;;;;;;;3.28;81.74;94183.22;5073905;28;20440;-79
2021/01/13 08:12:31;;;;;;;15.43;9.53;;;;;;;3.04;81.90;94177.06;5073802;28;21001;-78
2021/01/13 08:15:39;;;;;;;18.83;10.13;;;;;;;2.99;83.16;94190.34;5073651;28;20501;-78
2021/01/13 08:18:49;;;;;;;16.60;9.83;;;;;;;3.04;82.70;94187.44;5065872;28;20488;-79
2021/01/13 08:21:24;;;;;;;15.53;10.00;;;;;;;2.97;82.42;94189.63;4991789;28;20938;-79
2021/01/13 08:23:56;;;;;;;17.43;10.97;;;;;;;3.01;82.87;94193.66;4992367;28;20447;-79
2021/01/13 08:26:23;;;;;;;15.40;9.17;;;;;;;3.07;82.56;94198.44;4992051;28;20460;-79
2021/01/13 08:28:52;;;;;;;14.00;9.40;;;;;;;3.11;82.89;94205.06;4991885;28;20455;-79
2021/01/13 08:31:21;;;;;;;19.33;10.87;;;;;;;3.23;82.83;94208.63;4991459;28;20951;-79
2021/01/13 08:33:49;;;;;;;13.93;8.70;;;;;;;3.25;82.00;94213.69;4992351;28;21023;-81
2021/01/13 08:36:17;;;;;;;18.80;10.47;;;;;;;3.15;81.85;94220.41;4991824;28;20488;-79
2021/01/13 08:39:06;;;;;;;18.20;10.57;;;;;;;3.17;82.96;94223.72;4992022;28;20826;-79
2021/01/13 08:41:33;;;;;;;17.97;11.40;;;;;;;3.10;82.49;94221.56;4952986;28;20450;-79
2021/01/13 08:44:06;;;;;;;16.90;10.70;;;;;;;3.08;81.91;94220.81;4953290;28;20826;-79
2021/01/13 08:46:43;;;;;;;14.93;10.70;;;;;;;3.00;81.65;94224.88;4952870;28;20481;-80
2021/01/13 08:49:10;;;;;;;17.07;12.00;;;;;;;2.87;81.79;94230.00;4952584;28;20459;-80
2021/01/13 08:51:36;;;;;;;19.90;11.50;;;;;;;2.85;82.48;94234.47;4951879;28;20468;-79
2021/01/13 08:54:23;;;;;;;15.77;10.10;;;;;;;2.83;82.75;94231.13;4936942;29;20445;-80
2021/01/13 08:56:57;;;;;;;21.60;11.83;;;;;;;2.77;83.81;94231.53;4938999;28;20490;-80
2021/01/13 08:59:34;;;;;;;18.47;10.73;;;;;;;2.63;82.95;94231.63;5030968;28;20443;-80
2021/01/13 09:02:05;;;;;;;19.70;12.60;;;;;;;2.52;84.53;94231.47;4998123;28;20446;-79
2021/01/13 09:04:48;;;;;;;20.00;11.20;;;;;;;2.52;84.68;94221.09;4997680;28;21012;-79
2021/01/13 09:07:16;;;;;;;21.00;11.67;;;;;;;2.43;84.57;94230.31;4997500;28;20789;-80
2021/01/13 09:09:54;;;;;;;24.43;13.97;;;;;;;2.43;85.48;94222.53;5030369;28;20446;-79
2021/01/13 09:12:45;;;;;;;21.70;13.73;;;;;;;2.36;85.91;94227.28;5030634;28;20489;-79
2021/01/13 09:15:13;;;;;;;19.83;12.30;;;;;;;2.31;86.25;94224.13;4952886;28;20919;-80
2021/01/13 09:17:41;;;;;;;21.40;14.67;;;;;;;2.34;86.60;94223.13;4957844;28;20990;-80
2021/01/13 09:20:17;;;;;;;19.00;12.77;;;;;;;2.38;86.50;94212.47;4991052;28;20462;-79
2021/01/13 09:22:45;;;;;;;23.33;13.97;;;;;;;2.44;87.25;94222.44;4958840;28;20483;-80
2021/01/13 09:25:17;;;;;;;19.93;13.37;;;;;;;2.40;85.84;94217.56;4986814;28;20923;-80
2021/01/13 09:27:46;;;;;;;21.57;13.27;;;;;;;2.41;85.89;94209.69;4991157;28;20451;-79
2021/01/13 09:30:29;;;;;;;32.00;14.70;;;;;;;2.46;86.04;94212.81;4991033;28;20440;-78
2021/01/13 09:32:57;;;;;;;31.60;17.40;;;;;;;2.48;86.54;94210.94;4991405;28;20463;-79
2021/01/13 09:35:26;;;;;;;26.77;15.60;;;;;;;2.57;85.88;94221.63;4991296;28;20448;-79
2021/01/13 09:37:54;;;;;;;33.97;15.37;;;;;;;2.64;86.20;94212.56;4991287;28;20480;-81
2021/01/13 09:40:23;;;;;;;17.53;12.03;;;;;;;2.68;85.68;94207.09;4971564;28;20556;-79
2021/01/13 09:42:58;;;;;;;25.50;14.50;;;;;;;2.68;85.90;94201.06;4975255;28;20467;-81
2021/01/13 09:45:37;;;;;;;32.83;18.30;;;;;;;2.80;85.45;94189.91;4975037;28;21027;-79
2021/01/13 09:48:17;;;;;;;30.93;14.90;;;;;;;2.86;85.11;94184.31;4975244;28;20619;-79
2021/01/13 09:50:44;;;;;;;19.80;12.53;;;;;;;2.96;85.12;94187.97;4994377;28;20510;-80
2021/01/13 09:53:12;;;;;;;24.40;15.90;;;;;;;3.05;84.08;94189.09;5056573;28;20437;-81
2021/01/13 09:55:41;;;;;;;22.43;13.63;;;;;;;3.15;83.96;94184.13;5056698;28;20487;-82
2021/01/13 09:58:17;;;;;;;25.13;16.57;;;;;;;3.27;83.55;94184.13;5057056;28;20568;-81
2021/01/13 10:00:44;;;;;;;22.87;12.87;;;;;;;3.51;84.21;94176.47;5055829;28;20468;-82
2021/01/13 10:03:12;;;;;;;29.23;14.73;;;;;;;3.64;83.44;94172.06;5055205;28;20499;-80
2021/01/13 10:05:38;;;;;;;25.30;13.30;;;;;;;3.55;82.21;94169.28;5055861;28;20456;-81
2021/01/13 10:08:05;;;;;;;18.57;11.77;;;;;;;3.55;81.97;94167.53;5021276;28;20441;-82
2021/01/13 10:10:32;;;;;;;15.87;10.53;;;;;;;3.62;81.79;94173.13;5056435;28;20511;-82
2021/01/13 10:13:01;;;;;;;18.07;10.63;;;;;;;3.72;81.10;94154.19;5055979;28;20433;-82
2021/01/13 10:15:28;;;;;;;19.00;11.17;;;;;;;3.87;81.46;94161.84;5056838;28;20532;-82
2021/01/13 10:18:01;;;;;;;24.07;12.20;;;;;;;3.94;81.08;94156.13;5056947;28;20485;-82
2021/01/13 10:20:29;;;;;;;19.17;12.00;;;;;;;3.98;80.48;94154.97;5056401;28;20487;-82
2021/01/13 10:23:00;;;;;;;20.53;10.47;;;;;;;3.96;79.02;94164.63;5056305;28;20995;-83
2021/01/13 10:25:28;;;;;;;20.33;11.77;;;;;;;3.90;79.85;94162.47;5056562;28;20453;-82
2021/01/13 10:27:56;;;;;;;14.33;10.33;;;;;;;3.73;80.10;94161.03;5056448;28;20452;-82
2021/01/13 10:30:25;;;;;;;24.30;13.40;;;;;;;3.80;80.40;94150.25;5056589;28;20468;-85
2021/01/13 10:32:52;;;;;;;26.13;13.20;;;;;;;3.65;80.32;94150.38;5056167;28;20457;-83
2021/01/13 10:35:21;;;;;;;20.53;14.97;;;;;;;3.62;81.23;94162.72;5056154;28;20460;-81
2021/01/13 10:37:53;;;;;;;28.30;14.63;;;;;;;3.43;81.28;94158.81;5055877;28;20484;-83
2021/01/13 10:40:20;;;;;;;30.70;15.20;;;;;;;3.43;81.34;94157.97;5055954;28;20448;-83
2021/01/13 10:42:49;;;;;;;29.97;15.20;;;;;;;3.42;83.14;94167.53;5055731;28;20453;-84
2021/01/13 10:45:17;;;;;;;23.83;14.10;;;;;;;3.65;86.61;94160.75;5055947;28;20441;-84
2021/01/13 10:47:54;;;;;;;28.30;15.27;;;;;;;3.58;81.78;94158.69;5055861;28;20441;-88
2021/01/13 10:50:23;;;;;;;25.90;15.23;;;;;;;3.58;82.11;94153.50;5055055;28;20477;-83
2021/01/13 10:52:54;;;;;;;20.73;15.10;;;;;;;3.64;81.92;94156.50;5054250;28;20453;-81
2021/01/13 10:55:22;;;;;;;23.83;12.97;;;;;;;3.58;81.32;94156.94;5055397;28;20460;-82
2021/01/13 10:57:50;;;;;;;25.70;14.83;;;;;;;3.68;81.46;94151.94;5036300;28;20481;-84
2021/01/13 11:00:18;;;;;;;21.00;11.47;;;;;;;3.58;80.97;94149.16;5055190;28;20441;-81
2021/01/13 11:02:53;;;;;;;25.13;12.93;;;;;;;3.53;81.32;94146.06;5020519;28;20971;-82
2021/01/13 11:05:20;;;;;;;19.70;13.70;;;;;;;3.56;81.09;94151.03;5054513;28;20502;-87
2021/01/13 11:07:49;;;;;;;21.90;12.97;;;;;;;3.56;80.52;94143.25;5020213;28;20451;-79
2021/01/13 11:10:17;;;;;;;15.27;11.43;;;;;;;3.58;80.94;94146.56;5055246;28;20481;-82
2021/01/13 11:12:43;;;;;;;27.70;14.37;;;;;;;3.56;81.56;94139.81;5055581;28;20460;-80
2021/01/13 11:15:11;;;;;;;25.97;13.70;;;;;;;3.59;80.61;94145.63;5054915;28;20449;-86
2021/01/13 11:17:38;;;;;;;21.40;12.77;;;;;;;3.58;80.89;94154.34;5020119;28;20481;-86
2021/01/13 11:20:07;;;;;;;26.33;13.10;;;;;;;3.59;79.78;94152.56;5054706;28;20444;-82
2021/01/13 11:22:45;;;;;;;20.70;12.63;;;;;;;3.59;79.75;94158.59;5074400;28;20476;-83
2021/01/13 11:25:22;;;;;;;22.03;12.73;;;;;;;3.55;81.80;94156.31;5074433;28;20819;-82
2021/01/13 11:27:57;;;;;;;28.43;16.50;;;;;;;3.54;81.44;94158.09;5074616;28;20440;-81
2021/01/13 11:30:24;;;;;;;25.53;13.77;;;;;;;3.50;81.34;94158.41;5074483;28;20440;-82
2021/01/13 11:32:52;;;;;;;33.73;15.27;;;;;;;3.49;82.30;94154.16;5064142;28;20542;-82
2021/01/13 11:35:31;;;;;;;28.60;18.50;;;;;;;3.47;83.23;94156.88;5055265;28;20449;-81
2021/01/13 11:38:20;;;;;;;22.30;11.80;;;;;;;3.47;83.22;94154.28;5054846;28;20492;-80
2021/01/13 11:41:17;;;;;;;29.83;17.10;;;;;;;3.53;83.29;94153.84;5036701;28;20486;-82
2021/01/13 11:44:18;;;;;;;24.40;14.60;;;;;;;3.40;83.85;94145.22;5054891;28;20461;-81
2021/01/13 11:46:46;;;;;;;24.10;13.63;;;;;;;3.27;84.40;94159.97;5054910;28;20444;-81
2021/01/13 11:49:39;;;;;;;24.17;14.53;;;;;;;3.30;84.91;94152.81;5055498;28;20448;-81
2021/01/13 11:52:08;;;;;;;20.93;12.37;;;;;;;3.31;85.35;94161.44;5054640;28;20937;-81
2021/01/13 11:54:36;;;;;;;26.07;16.17;;;;;;;3.20;85.49;94153.56;5054823;28;20464;-81